Varde, Denmark
Current Conditions -  °F | °C
As of 9:50 AM on Wednesday 26 Nov 2014 (Local Time) from EKEB Reporting Station
Scattered Clouds Scattered Clouds  
Wind Chill: 36°   Ceiling: Unl
Heat Index: 39°   Visibility: 6mi
Dew Point: 39°   Wind: 5mph
Humidity: 100%   Direction: 110°ESE
Pressure: 30.21"   Gusts: NA
Location:  55.62°N, 8.48°E
Report Text: EKEB 260850Z AUTO 11004KT 9999NDV SCT022/// 04/04 Q1023
Loading
Personal Weather Stations






























Interactive Weather Map New forecast layout! Learn more

10-Day Weather Forecast

Advertisements
Track Severe Weather on mobile